Time;durP1;ratioP1;P1;durP2;ratioP2;P2;SDS_P1;SDS_P2;PMS_P1;PMS_P2;Temp;Humidity;BMP_temperature;BMP_pressure;BME280_temperature;BME280_humidity;BME280_pressure;Samples;Min_cycle;Max_cycle;Signal;HPM_P1;HPM_P2
2022/06/03 00:01:24;;;;;;;;;;;10.60;99.90;;;;;;5013535;28;19932;-73
2022/06/03 00:03:56;;;;;;;;;;;10.60;99.90;;;;;;5011691;28;19929;-74
2022/06/03 00:06:36;;;;;;;;;;;10.60;99.90;;;;;;5012302;28;19972;-74
2022/06/03 00:09:06;;;;;;;;;;;10.60;99.90;;;;;;5011596;28;19930;-73
2022/06/03 00:11:49;;;;;;;;;;;10.60;99.90;;;;;;5012156;28;20397;-73
2022/06/03 00:14:33;;;;;;;;;;;10.50;99.90;;;;;;5012156;28;19925;-74
2022/06/03 00:17:21;;;;;;;;;;;10.50;99.90;;;;;;5009610;28;19934;-73
2022/06/03 00:19:48;;;;;;;;;;;10.50;99.90;;;;;;5011348;28;19932;-74
2022/06/03 00:22:31;;;;;;;;;;;10.50;99.90;;;;;;5012934;28;19980;-74
2022/06/03 00:25:06;;;;;;;;;;;10.40;99.90;;;;;;5011747;28;19949;-73
2022/06/03 00:27:34;;;;;;;;;;;10.40;99.90;;;;;;4997788;28;19933;-74
2022/06/03 00:30:02;;;;;;;;;;;10.40;99.90;;;;;;4993207;28;19961;-73
2022/06/03 00:32:40;;;;;;;;;;;10.30;99.90;;;;;;4991577;28;19937;-73
2022/06/03 00:35:06;;;;;;;;;;;10.30;99.90;;;;;;4990782;28;20305;-74
2022/06/03 00:37:34;;;;;;;;;;;10.30;99.90;;;;;;4991903;28;20020;-73
2022/06/03 00:40:20;;;;;;;;;;;10.30;99.90;;;;;;4991719;28;19929;-73
2022/06/03 00:42:48;;;;;;;;;;;10.30;99.90;;;;;;4992410;28;19925;-74
2022/06/03 00:45:23;;;;;;;;;;;10.20;99.90;;;;;;4995351;28;20263;-74
2022/06/03 00:47:55;;;;;;;;;;;10.20;99.90;;;;;;4994095;28;19976;-74
2022/06/03 00:50:40;;;;;;;;;;;10.20;99.90;;;;;;4996337;28;19925;-74
2022/06/03 00:53:21;;;;;;;;;;;10.10;99.90;;;;;;4996718;28;19948;-74
2022/06/03 00:55:50;;;;;;;;;;;10.10;99.90;;;;;;4994702;28;19973;-73
2022/06/03 00:58:28;;;;;;;;;;;10.10;99.90;;;;;;5011862;28;19932;-73
2022/06/03 01:00:57;;;;;;;;;;;10.00;99.90;;;;;;5016141;28;19925;-73
2022/06/03 01:03:22;;;;;;;;;;;10.40;99.90;;;;;;5013644;28;20258;-74
2022/06/03 01:06:07;;;;;;;;;;;10.00;99.90;;;;;;5016180;28;19972;-74
2022/06/03 01:08:35;;;;;;;;;;;10.00;99.90;;;;;;5014245;28;19929;-73
2022/06/03 01:11:04;;;;;;;;;;;9.90;99.90;;;;;;5013387;28;19926;-74
2022/06/03 01:13:33;;;;;;;;;;;9.90;99.90;;;;;;5012948;28;20312;-74
2022/06/03 01:16:17;;;;;;;;;;;9.90;99.90;;;;;;5013959;28;20369;-73
2022/06/03 01:18:43;;;;;;;;;;;9.90;99.90;;;;;;5014963;28;19933;-74
2022/06/03 01:21:19;;;;;;;;;;;9.90;99.90;;;;;;5014682;28;19926;-74
2022/06/03 01:23:51;;;;;;;;;;;9.80;99.90;;;;;;5013884;28;19926;-74
2022/06/03 01:26:32;;;;;;;;;;;9.80;99.90;;;;;;5015356;28;19975;-74
2022/06/03 01:29:06;;;;;;;;;;;9.80;99.90;;;;;;5012454;28;20297;-74
2022/06/03 01:31:32;;;;;;;;;;;9.80;99.90;;;;;;4994315;28;19996;-74
2022/06/03 01:34:14;;;;;;;;;;;9.80;99.90;;;;;;4995848;28;19933;-74
2022/06/03 01:36:45;;;;;;;;;;;9.70;99.90;;;;;;4996720;28;19936;-74
2022/06/03 01:39:19;;;;;;;;;;;9.90;99.90;;;;;;4994635;28;19971;-74
2022/06/03 01:42:03;;;;;;;;;;;9.70;99.90;;;;;;4995254;28;19977;-74
2022/06/03 01:44:31;;;;;;;;;;;9.70;99.90;;;;;;4993981;28;19934;-74
2022/06/03 01:47:06;;;;;;;;;;;9.70;99.90;;;;;;4996384;28;19981;-74
2022/06/03 01:49:44;;;;;;;;;;;9.60;99.90;;;;;;4999523;28;19932;-74
2022/06/03 01:52:29;;;;;;;;;;;9.60;99.90;;;;;;5012859;28;20289;-73
2022/06/03 01:54:55;;;;;;;;;;;9.60;99.90;;;;;;5015529;28;19926;-73
2022/06/03 01:57:39;;;;;;;;;;;9.60;99.90;;;;;;5014114;28;19926;-74
2022/06/03 02:00:17;;;;;;;;;;;9.50;99.90;;;;;;5014272;28;19929;-73
2022/06/03 02:02:49;;;;;;;;;;;9.50;99.90;;;;;;5014668;28;19926;-73
2022/06/03 02:05:15;;;;;;;;;;;9.50;99.90;;;;;;5012494;28;19933;-73
2022/06/03 02:07:58;;;;;;;;;;;9.50;99.90;;;;;;5013425;28;19944;-73
2022/06/03 02:10:44;;;;;;;;;;;9.40;99.90;;;;;;5014007;28;19972;-73
2022/06/03 02:13:10;;;;;;;;;;;9.40;99.90;;;;;;4993002;28;19935;-73
2022/06/03 02:15:52;;;;;;;;;;;9.40;99.90;;;;;;5014679;28;20344;-74
2022/06/03 02:18:37;;;;;;;;;;;9.30;99.90;;;;;;5014731;28;19925;-74
2022/06/03 02:21:02;;;;;;;;;;;9.30;99.90;;;;;;5009608;28;19973;-73
2022/06/03 02:23:54;;;;;;;;;;;9.30;99.90;;;;;;4995324;28;19969;-73
2022/06/03 02:26:25;;;;;;;;;;;10.20;99.90;;;;;;4970651;28;20340;-74
2022/06/03 02:32:16;;;;;;;;;;;9.30;99.90;;;;;;4993283;28;19926;-74
2022/06/03 02:35:04;;;;;;;;;;;9.20;99.90;;;;;;4999578;28;20331;-73
2022/06/03 02:37:38;;;;;;;;;;;9.20;99.90;;;;;;5012472;28;19929;-73
2022/06/03 02:40:23;;;;;;;;;;;9.20;99.90;;;;;;5014134;28;19933;-74
2022/06/03 02:43:00;;;;;;;;;;;9.20;99.90;;;;;;5012843;28;19929;-73
2022/06/03 02:45:45;;;;;;;;;;;9.20;99.90;;;;;;5013081;28;19926;-73
2022/06/03 02:48:14;;;;;;;;;;;9.10;99.90;;;;;;5011738;28;20384;-74
2022/06/03 02:50:58;;;;;;;;;;;9.10;99.90;;;;;;5010881;28;19999;-74
2022/06/03 02:53:45;;;;;;;;;;;9.10;99.90;;;;;;5012342;28;19929;-74
2022/06/03 02:56:29;;;;;;;;;;;9.10;99.90;;;;;;5011470;28;19925;-74
2022/06/03 02:58:55;;;;;;;;;;;9.10;99.90;;;;;;5012954;28;19925;-74
2022/06/03 03:01:39;;;;;;;;;;;9.30;99.90;;;;;;5012581;28;19933;-74
2022/06/03 03:04:16;;;;;;;;;;;9.10;99.90;;;;;;5008584;28;19926;-74
2022/06/03 03:07:00;;;;;;;;;;;9.10;99.90;;;;;;4992710;28;19981;-74
2022/06/03 03:09:44;;;;;;;;;;;9.10;99.90;;;;;;4991622;28;19926;-74
2022/06/03 03:12:16;;;;;;;;;;;9.10;99.90;;;;;;4993526;28;19944;-74
2022/06/03 03:14:59;;;;;;;;;;;9.00;99.90;;;;;;4993579;28;20377;-74
2022/06/03 03:17:25;;;;;;;;;;;9.00;99.90;;;;;;4991932;28;20005;-74
2022/06/03 03:20:05;;;;;;;;;;;9.10;99.90;;;;;;4993670;28;19933;-74
2022/06/03 03:22:44;;;;;;;;;;;9.10;99.90;;;;;;4991523;28;19965;-74
2022/06/03 03:25:20;;;;;;;;;;;9.40;99.90;;;;;;4993617;28;19944;-73
2022/06/03 03:27:54;;;;;;;;;;;9.10;99.90;;;;;;4993799;28;20129;-74
2022/06/03 03:30:24;;;;;;;;;;;9.50;99.90;;;;;;4991156;28;19980;-74
2022/06/03 03:33:01;;;;;;;;;;;9.00;99.90;;;;;;4992236;28;20357;-74
2022/06/03 03:35:27;;;;;;;;;;;9.10;99.90;;;;;;5006339;28;20442;-74
2022/06/03 03:38:07;;;;;;;;;;;9.10;99.90;;;;;;4997136;28;19926;-74
2022/06/03 03:40:42;;;;;;;;;;;9.10;99.90;;;;;;4992496;28;19984;-74
2022/06/03 03:43:20;;;;;;;;;;;9.10;99.90;;;;;;4991470;28;19977;-74
2022/06/03 03:46:00;;;;;;;;;;;9.10;99.90;;;;;;4991806;28;20270;-74
2022/06/03 03:48:43;;;;;;;;;;;9.10;99.90;;;;;;4992060;28;19926;-74
2022/06/03 03:51:26;;;;;;;;;;;9.10;99.90;;;;;;4990906;28;20009;-74
2022/06/03 03:53:51;;;;;;;;;;;9.10;99.90;;;;;;4992968;28;19929;-74
2022/06/03 03:56:17;;;;;;;;;;;9.20;99.90;;;;;;4997160;28;20365;-74
2022/06/03 03:59:04;;;;;;;;;;;9.20;99.90;;;;;;5002116;28;19926;-74
2022/06/03 04:01:48;;;;;;;;;;;9.20;99.90;;;;;;5001618;28;20419;-74
2022/06/03 04:04:13;;;;;;;;;;;9.20;99.90;;;;;;5002359;28;20368;-74
2022/06/03 04:06:45;;;;;;;;;;;9.30;99.90;;;;;;5012220;28;20023;-74
2022/06/03 04:09:19;;;;;;;;;;;9.20;99.90;;;;;;5010729;28;19926;-74
2022/06/03 04:12:04;;;;;;;;;;;9.20;99.90;;;;;;5010385;28;19929;-74
2022/06/03 04:14:38;;;;;;;;;;;9.30;99.90;;;;;;5008534;28;19932;-74
2022/06/03 04:17:07;;;;;;;;;;;9.30;99.90;;;;;;4992965;28;19948;-74
2022/06/03 04:19:44;;;;;;;;;;;9.30;99.90;;;;;;4993669;28;19926;-74
2022/06/03 04:22:29;;;;;;;;;;;9.40;99.90;;;;;;5016704;28;19929;-74
2022/06/03 04:25:13;;;;;;;;;;;9.40;99.90;;;;;;5023965;28;20293;-75
2022/06/03 04:27:40;;;;;;;;;;;9.40;99.90;;;;;;5023788;28;20348;-71
2022/06/03 04:30:22;;;;;;;;;;;9.40;99.90;;;;;;5022622;28;19926;-71
2022/06/03 04:33:06;;;;;;;;;;;9.50;99.90;;;;;;5025578;28;19933;-71
2022/06/03 04:35:31;;;;;;;;;;;9.50;99.90;;;;;;5025090;28;20019;-76
2022/06/03 04:38:14;;;;;;;;;;;9.50;99.90;;;;;;5025301;28;19973;-76
2022/06/03 04:40:59;;;;;;;;;;;9.60;99.90;;;;;;4994075;28;19929;-73
2022/06/03 04:43:43;;;;;;;;;;;9.60;99.90;;;;;;4994681;28;19926;-73
2022/06/03 04:46:11;;;;;;;;;;;9.70;99.90;;;;;;4998150;28;20021;-72
2022/06/03 04:48:55;;;;;;;;;;;9.80;99.90;;;;;;5023005;28;19926;-73
2022/06/03 04:51:41;;;;;;;;;;;9.80;99.90;;;;;;5034066;28;19925;-72
2022/06/03 04:54:22;;;;;;;;;;;9.90;99.90;;;;;;5033066;28;19972;-71
2022/06/03 04:56:55;;;;;;;;;;;9.90;99.90;;;;;;5025255;28;19988;-71
2022/06/03 04:59:31;;;;;;;;;;;10.00;99.90;;;;;;5016911;28;19922;-72
2022/06/03 05:02:16;;;;;;;;;;;10.10;99.90;;;;;;5002162;28;19944;-72
2022/06/03 05:04:47;;;;;;;;;;;10.10;99.90;;;;;;5022811;28;19926;-72
2022/06/03 05:07:31;;;;;;;;;;;10.20;99.90;;;;;;5024169;28;19926;-71
2022/06/03 05:10:03;;;;;;;;;;;10.30;99.90;;;;;;5022625;28;20381;-72
2022/06/03 05:12:31;;;;;;;;;;;10.30;99.90;;;;;;5021991;28;20429;-72
2022/06/03 05:15:27;;;;;;;;;;;10.40;99.90;;;;;;5024226;28;19935;-73
2022/06/03 05:18:02;;;;;;;;;;;10.50;99.90;;;;;;5023223;28;19925;-76
2022/06/03 05:20:46;;;;;;;;;;;10.50;99.90;;;;;;5017604;28;20704;-73
2022/06/03 05:23:12;;;;;;;;;;;10.60;99.90;;;;;;5018238;28;19949;-74
2022/06/03 05:25:37;;;;;;;;;;;10.70;99.90;;;;;;5013173;28;19926;-72
2022/06/03 05:28:06;;;;;;;;;;;10.70;99.90;;;;;;5007586;28;19953;-74
2022/06/03 05:30:47;;;;;;;;;;;10.80;99.90;;;;;;5010446;28;19925;-74
2022/06/03 05:33:20;;;;;;;;;;;10.80;99.90;;;;;;5003063;28;19925;-75
2022/06/03 05:35:55;;;;;;;;;;;11.00;99.90;;;;;;5000988;28;19972;-72
2022/06/03 05:38:32;;;;;;;;;;;11.00;99.90;;;;;;5004012;28;19930;-73
2022/06/03 05:40:58;;;;;;;;;;;11.10;99.90;;;;;;5008536;28;19933;-75
2022/06/03 05:43:32;;;;;;;;;;;11.20;99.90;;;;;;4998999;28;19932;-75
2022/06/03 05:46:01;;;;;;;;;;;11.20;99.90;;;;;;5010968;28;19925;-74
2022/06/03 05:48:45;;;;;;;;;;;11.30;99.90;;;;;;5011273;28;19926;-74
2022/06/03 05:51:26;;;;;;;;;;;11.40;99.90;;;;;;5011667;28;20389;-76
2022/06/03 05:53:51;;;;;;;;;;;11.50;99.90;;;;;;5013853;28;20281;-75
2022/06/03 05:56:40;;;;;;;;;;;11.60;99.90;;;;;;5013177;28;19934;-76
2022/06/03 05:59:12;;;;;;;;;;;11.60;99.90;;;;;;5004039;28;20363;-73
2022/06/03 06:01:37;;;;;;;;;;;11.70;99.90;;;;;;4998329;28;19925;-73
2022/06/03 06:04:18;;;;;;;;;;;11.80;99.90;;;;;;5001354;28;20255;-72
2022/06/03 06:06:47;;;;;;;;;;;11.90;99.90;;;;;;5008874;28;19948;-76
2022/06/03 06:09:16;;;;;;;;;;;12.00;99.90;;;;;;5012189;28;19925;-75
2022/06/03 06:11:47;;;;;;;;;;;12.10;99.90;;;;;;5013066;28;20296;-79
2022/06/03 06:14:22;;;;;;;;;;;12.20;99.90;;;;;;5011650;28;19933;-76
2022/06/03 06:16:48;;;;;;;;;;;12.30;99.90;;;;;;5012466;28;20321;-75
2022/06/03 06:19:22;;;;;;;;;;;12.40;99.90;;;;;;5011889;28;19928;-75
2022/06/03 06:21:54;;;;;;;;;;;12.40;99.90;;;;;;5011014;28;19926;-71
2022/06/03 06:24:34;;;;;;;;;;;12.60;99.90;;;;;;5007325;28;20369;-73
2022/06/03 06:27:28;;;;;;;;;;;12.70;99.90;;;;;;5009225;28;19929;-71
2022/06/03 06:30:05;;;;;;;;;;;12.80;99.90;;;;;;5013849;28;19929;-73
2022/06/03 06:32:35;;;;;;;;;;;12.90;99.90;;;;;;5011553;28;19926;-73
2022/06/03 06:35:19;;;;;;;;;;;13.00;99.90;;;;;;5005616;28;19938;-70
2022/06/03 06:37:47;;;;;;;;;;;13.10;99.90;;;;;;4989547;28;19925;-70
2022/06/03 06:40:29;;;;;;;;;;;13.20;99.90;;;;;;5006307;28;19925;-74
2022/06/03 06:43:08;;;;;;;;;;;13.30;99.90;;;;;;5003131;28;19940;-76
2022/06/03 06:45:35;;;;;;;;;;;13.30;99.90;;;;;;5003143;28;19932;-76
2022/06/03 06:48:07;;;;;;;;;;;13.40;99.90;;;;;;4999667;28;19925;-77
2022/06/03 06:50:35;;;;;;;;;;;13.60;99.90;;;;;;4998562;28;20380;-75
2022/06/03 06:53:08;;;;;;;;;;;13.70;99.90;;;;;;5002901;28;19927;-73
2022/06/03 06:55:48;;;;;;;;;;;13.70;99.90;;;;;;4994633;28;19980;-74
2022/06/03 06:58:43;;;;;;;;;;;13.90;99.90;;;;;;5000514;28;20043;-73
2022/06/03 07:01:10;;;;;;;;;;;14.00;99.90;;;;;;5001816;28;19988;-73
2022/06/03 07:03:43;;;;;;;;;;;14.10;99.90;;;;;;5009256;28;19932;-72
2022/06/03 07:06:14;;;;;;;;;;;14.20;99.90;;;;;;5010374;28;19940;-73
2022/06/03 07:08:43;;;;;;;;;;;14.30;99.90;;;;;;5020924;28;19929;-81
2022/06/03 07:11:26;;;;;;;;;;;14.40;99.90;;;;;;5017997;28;20369;-75
2022/06/03 07:13:57;;;;;;;;;;;14.60;99.90;;;;;;5019447;28;19932;-71
2022/06/03 07:22:03;;;;;;;;;;;15.80;99.90;;;;;;5015468;28;19972;-73
2022/06/03 07:24:36;;;;;;;;;;;16.70;99.90;;;;;;5016888;28;19937;-73
2022/06/03 07:27:07;;;;;;;;;;;17.70;99.90;;;;;;4996255;28;19933;-76
2022/06/03 07:29:38;;;;;;;;;;;18.40;99.90;;;;;;5009497;28;19932;-75
2022/06/03 07:32:08;;;;;;;;;;;19.10;99.50;;;;;;5011054;28;19922;-75
2022/06/03 07:34:37;;;;;;;;;;;19.70;99.90;;;;;;5012319;28;19929;-74
2022/06/03 07:37:08;;;;;;;;;;;20.20;99.20;;;;;;5010356;28;20365;-76
2022/06/03 07:39:39;;;;;;;;;;;20.50;98.50;;;;;;5011522;28;19949;-74
2022/06/03 07:42:05;;;;;;;;;;;20.90;97.80;;;;;;5012049;28;19979;-73
2022/06/03 07:44:54;;;;;;;;;;;21.10;96.60;;;;;;5011844;28;19926;-75
2022/06/03 07:47:20;;;;;;;;;;;21.50;96.00;;;;;;5011889;28;19930;-76
2022/06/03 07:50:01;;;;;;;;;;;21.90;95.90;;;;;;5011883;28;19932;-75
2022/06/03 07:52:34;;;;;;;;;;;22.20;95.80;;;;;;5011406;28;19988;-76
2022/06/03 07:55:04;;;;;;;;;;;22.40;95.10;;;;;;5010029;28;19929;-75
2022/06/03 07:57:30;;;;;;;;;;;22.60;94.30;;;;;;4991147;28;19961;-71
2022/06/03 07:59:59;;;;;;;;;;;22.50;93.40;;;;;;4992177;28;19925;-72
2022/06/03 08:02:25;;;;;;;;;;;22.70;93.10;;;;;;4991233;28;19933;-72
2022/06/03 08:05:03;;;;;;;;;;;22.80;93.40;;;;;;4990419;28;19926;-74
2022/06/03 08:13:00;;;;;;;;;;;23.60;93.10;;;;;;5002172;28;20159;-72
2022/06/03 08:15:37;;;;;;;;;;;23.80;91.90;;;;;;5010830;28;20264;-72
2022/06/03 08:18:05;;;;;;;;;;;23.70;91.90;;;;;;5009827;28;19976;-72
2022/06/03 08:20:33;;;;;;;;;;;24.10;92.60;;;;;;5012287;28;19976;-73
2022/06/03 08:22:59;;;;;;;;;;;24.10;91.60;;;;;;5002730;28;19926;-73
2022/06/03 08:25:26;;;;;;;;;;;24.30;91.00;;;;;;4999062;28;19997;-72
2022/06/03 08:27:53;;;;;;;;;;;24.50;91.80;;;;;;5006518;28;19994;-72
2022/06/03 08:30:20;;;;;;;;;;;24.80;91.50;;;;;;5002179;28;19929;-72
2022/06/03 08:32:49;;;;;;;;;;;24.90;90.80;;;;;;5000495;28;19936;-72
2022/06/03 08:35:17;;;;;;;;;;;24.70;90.80;;;;;;5000213;28;19925;-72
2022/06/03 08:37:54;;;;;;;;;;;24.90;91.30;;;;;;5003267;28;20386;-72
2022/06/03 08:40:28;;;;;;;;;;;25.20;91.10;;;;;;4996037;28;19929;-72
2022/06/03 08:43:08;;;;;;;;;;;25.50;90.50;;;;;;5005064;28;19930;-73
2022/06/03 08:45:48;;;;;;;;;;;25.30;90.50;;;;;;5010628;28;19933;-73
2022/06/03 08:48:15;;;;;;;;;;;25.30;90.10;;;;;;5010712;28;19995;-73
2022/06/03 08:50:43;;;;;;;;;;;25.50;90.30;;;;;;5003352;28;20638;-73
2022/06/03 08:53:08;;;;;;;;;;;25.60;90.90;;;;;;4991138;28;20294;-72
2022/06/03 08:55:49;;;;;;;;;;;26.00;91.00;;;;;;4996131;28;19925;-73
2022/06/03 08:58:18;;;;;;;;;;;26.10;90.00;;;;;;5009433;28;19925;-73
2022/06/03 09:00:59;;;;;;;;;;;26.20;88.90;;;;;;5003483;28;20369;-72
2022/06/03 09:03:25;;;;;;;;;;;25.90;87.60;;;;;;5003020;28;20361;-73
2022/06/03 09:06:00;;;;;;;;;;;26.10;90.50;;;;;;5004759;28;19930;-74
2022/06/03 09:08:30;;;;;;;;;;;26.40;90.20;;;;;;4995189;28;19926;-73
2022/06/03 09:11:01;;;;;;;;;;;26.40;88.90;;;;;;4995904;28;19926;-73
2022/06/03 09:13:39;;;;;;;;;;;26.30;89.80;;;;;;4995365;28;19926;-72
2022/06/03 09:16:06;;;;;;;;;;;26.40;88.10;;;;;;4994075;28;20056;-72
2022/06/03 09:18:34;;;;;;;;;;;26.40;89.10;;;;;;4994700;28;19926;-72
2022/06/03 09:21:05;;;;;;;;;;;26.30;90.20;;;;;;4995053;28;19940;-73
2022/06/03 09:23:48;;;;;;;;;;;26.60;88.40;;;;;;4993849;28;19926;-71
2022/06/03 09:26:36;;;;;;;;;;;26.80;89.50;;;;;;4993856;28;20370;-71
2022/06/03 09:29:02;;;;;;;;;;;27.00;89.40;;;;;;5009316;28;19932;-72
2022/06/03 09:31:29;;;;;;;;;;;27.30;89.50;;;;;;5013793;28;20809;-71
2022/06/03 09:33:56;;;;;;;;;;;27.30;89.20;;;;;;5012207;28;20016;-71
2022/06/03 09:36:23;;;;;;;;;;;27.20;86.30;;;;;;4998071;28;20432;-72
2022/06/03 09:39:08;;;;;;;;;;;27.20;87.30;;;;;;4994228;28;19930;-71
2022/06/03 09:41:35;;;;;;;;;;;27.10;88.70;;;;;;4995332;28;19926;-72
2022/06/03 09:44:03;;;;;;;;;;;27.20;88.40;;;;;;4994400;28;19969;-72
2022/06/03 09:46:30;;;;;;;;;;;27.20;86.60;;;;;;4993973;28;19930;-71
2022/06/03 09:48:56;;;;;;;;;;;27.10;87.10;;;;;;4995181;28;19972;-71
2022/06/03 09:51:55;;;;;;;;;;;27.30;85.50;;;;;;5010450;28;20381;-70
2022/06/03 09:54:22;;;;;;;;;;;27.30;86.70;;;;;;5013799;28;20266;-70
2022/06/03 09:56:50;;;;;;;;;;;27.20;86.00;;;;;;5012488;28;19979;-70
2022/06/03 09:59:16;;;;;;;;;;;27.40;86.30;;;;;;5013613;28;19933;-70
2022/06/03 10:01:42;;;;;;;;;;;27.30;86.30;;;;;;5013186;28;19921;-71
2022/06/03 10:04:07;;;;;;;;;;;27.20;86.20;;;;;;5013769;28;19932;-70
2022/06/03 10:06:50;;;;;;;;;;;27.20;85.50;;;;;;5012825;28;20008;-70
2022/06/03 10:15:37;;;;;;;;;;;27.10;85.40;;;;;;4992739;28;19929;-70
2022/06/03 10:17:33;;;;;;;;;;;27.20;86.60;;;;;;4992367;28;20344;-72
2022/06/03 10:19:58;;;;;;;;;;;27.30;85.70;;;;;;4998383;28;19930;-71
2022/06/03 10:22:24;;;;;;;;;;;27.30;86.20;;;;;;5011975;28;19971;-72
2022/06/03 10:24:49;;;;;;;;;;;27.10;83.30;;;;;;5011623;28;20067;-73
2022/06/03 10:27:20;;;;;;;;;;;27.10;85.00;;;;;;5013587;28;20289;-73
2022/06/03 10:29:48;;;;;;;;;;;26.70;85.60;;;;;;5013992;28;20484;-73
2022/06/03 10:32:16;;;;;;;;;;;26.70;86.10;;;;;;5011843;28;20015;-73
2022/06/03 10:34:42;;;;;;;;;;;26.70;85.20;;;;;;5013032;28;19926;-73
2022/06/03 10:37:15;;;;;;;;;;;26.70;85.30;;;;;;5009777;28;19932;-73
2022/06/03 10:39:42;;;;;;;;;;;26.50;84.40;;;;;;4992333;28;20397;-73
2022/06/03 10:42:11;;;;;;;;;;;26.50;86.30;;;;;;4993158;28;19980;-73
2022/06/03 10:44:42;;;;;;;;;;;26.60;87.50;;;;;;4992520;28;19929;-73
2022/06/03 10:47:32;;;;;;;;;;;26.60;83.00;;;;;;4992187;28;19932;-73
2022/06/03 10:49:59;;;;;;;;;;;26.30;83.50;;;;;;4994233;28;19926;-73
2022/06/03 11:03:30;;;;;;;;;;;26.70;88.70;;;;;;5009761;28;19929;-73
2022/06/03 11:05:55;;;;;;;;;;;26.40;88.90;;;;;;5010394;28;20385;-73
2022/06/03 11:08:21;;;;;;;;;;;26.20;90.00;;;;;;4997485;28;19926;-73
2022/06/03 11:10:54;;;;;;;;;;;26.30;90.00;;;;;;4991812;28;19926;-74
2022/06/03 11:13:30;;;;;;;;;;;26.20;90.90;;;;;;4992633;28;19932;-73
2022/06/03 11:15:58;;;;;;;;;;;25.90;89.20;;;;;;5003508;28;20388;-72
2022/06/03 11:18:29;;;;;;;;;;;26.00;90.20;;;;;;4991255;28;19933;-72
2022/06/03 11:20:55;;;;;;;;;;;25.70;90.20;;;;;;4990178;28;19925;-73
2022/06/03 11:23:21;;;;;;;;;;;25.90;90.50;;;;;;5003865;28;19933;-72
2022/06/03 11:25:51;;;;;;;;;;;26.10;91.00;;;;;;5012387;28;19925;-73
2022/06/03 11:28:19;;;;;;;;;;;26.30;90.60;;;;;;5011633;28;19949;-73
2022/06/03 11:30:48;;;;;;;;;;;26.40;89.70;;;;;;5012540;28;20294;-72
2022/06/03 11:33:23;;;;;;;;;;;26.70;90.20;;;;;;5010879;28;19933;-73
2022/06/03 11:35:51;;;;;;;;;;;26.60;88.90;;;;;;5011598;28;20362;-72
2022/06/03 11:38:20;;;;;;;;;;;26.20;88.80;;;;;;5010241;28;19932;-73
2022/06/03 11:40:51;;;;;;;;;;;26.10;89.80;;;;;;5011280;28;19926;-71
2022/06/03 11:43:20;;;;;;;;;;;26.30;90.50;;;;;;5010049;28;19926;-71
2022/06/03 11:45:51;;;;;;;;;;;26.10;89.60;;;;;;5012813;28;19926;-71
2022/06/03 11:48:17;;;;;;;;;;;25.90;90.40;;;;;;5010654;28;19972;-73
2022/06/03 11:50:42;;;;;;;;;;;26.00;90.10;;;;;;5010518;28;19961;-73
2022/06/03 11:53:08;;;;;;;;;;;26.00;90.00;;;;;;5008823;28;20293;-73
2022/06/03 11:55:34;;;;;;;;;;;26.00;90.50;;;;;;5012057;28;20504;-73
2022/06/03 11:57:59;;;;;;;;;;;26.10;90.60;;;;;;5009188;28;19930;-73
2022/06/03 12:00:26;;;;;;;;;;;26.10;90.10;;;;;;5010871;28;19928;-73
2022/06/03 12:03:10;;;;;;;;;;;26.10;90.20;;;;;;5010234;28;19929;-73
2022/06/03 12:05:41;;;;;;;;;;;26.00;89.10;;;;;;5012707;28;19925;-72
2022/06/03 12:08:11;;;;;;;;;;;25.70;90.70;;;;;;5008815;28;19925;-73
2022/06/03 12:11:01;;;;;;;;;;;25.60;90.20;;;;;;5009784;28;20296;-72
2022/06/03 12:13:31;;;;;;;;;;;25.30;90.50;;;;;;5010268;28;19926;-72
2022/06/03 12:15:56;;;;;;;;;;;25.40;91.40;;;;;;5010461;28;19926;-72
2022/06/03 12:18:35;;;;;;;;;;;25.30;90.60;;;;;;5010973;28;19925;-72
2022/06/03 12:21:02;;;;;;;;;;;25.20;91.00;;;;;;5011686;28;19949;-72
2022/06/03 12:23:28;;;;;;;;;;;25.10;90.70;;;;;;4997342;28;19936;-72
2022/06/03 12:25:53;;;;;;;;;;;25.10;90.90;;;;;;4990842;28;19926;-73
2022/06/03 12:28:31;;;;;;;;;;;25.10;90.30;;;;;;4990898;28;19984;-73
2022/06/03 12:31:00;;;;;;;;;;;25.10;90.60;;;;;;4992937;28;19933;-73
2022/06/03 12:33:33;;;;;;;;;;;25.20;90.80;;;;;;4992091;28;20452;-73
2022/06/03 12:36:05;;;;;;;;;;;25.20;90.10;;;;;;4992665;28;19926;-73
2022/06/03 12:38:38;;;;;;;;;;;25.10;90.20;;;;;;5000954;28;20023;-73
2022/06/03 12:41:05;;;;;;;;;;;25.00;90.80;;;;;;5017372;28;19932;-73
2022/06/03 12:43:46;;;;;;;;;;;25.10;91.20;;;;;;5014276;28;19933;-73
2022/06/03 12:46:30;;;;;;;;;;;25.00;90.80;;;;;;5008646;28;19932;-72
2022/06/03 12:48:56;;;;;;;;;;;24.90;90.20;;;;;;4994437;28;19926;-72
2022/06/03 12:51:21;;;;;;;;;;;24.70;90.60;;;;;;4993962;28;19973;-72
2022/06/03 12:53:52;;;;;;;;;;;24.70;90.50;;;;;;4993244;28;19921;-72
2022/06/03 12:56:23;;;;;;;;;;;24.60;90.30;;;;;;4997384;28;20023;-72
2022/06/03 12:59:11;;;;;;;;;;;24.50;91.10;;;;;;5013770;28;19968;-72
2022/06/03 13:01:42;;;;;;;;;;;24.50;91.00;;;;;;5007673;28;19926;-70
2022/06/03 13:04:24;;;;;;;;;;;24.60;90.90;;;;;;4995002;28;19930;-71
2022/06/03 13:07:08;;;;;;;;;;;24.60;91.60;;;;;;4995423;28;20024;-71
2022/06/03 13:09:52;;;;;;;;;;;24.50;91.20;;;;;;4995627;28;20009;-71
2022/06/03 13:12:21;;;;;;;;;;;24.60;91.00;;;;;;4993987;28;19932;-72
2022/06/03 13:14:46;;;;;;;;;;;24.50;90.90;;;;;;4993214;28;19930;-71
2022/06/03 13:17:31;;;;;;;;;;;24.50;91.00;;;;;;4995632;28;19926;-71
2022/06/03 13:19:58;;;;;;;;;;;24.30;90.20;;;;;;4996660;28;20329;-72
2022/06/03 13:22:29;;;;;;;;;;;24.20;90.40;;;;;;4993155;28;19932;-72
2022/06/03 13:25:13;;;;;;;;;;;24.20;91.00;;;;;;4995567;28;20043;-73
2022/06/03 13:27:38;;;;;;;;;;;24.20;91.40;;;;;;4993113;28;19973;-72
2022/06/03 13:30:10;;;;;;;;;;;24.20;90.80;;;;;;4996152;28;19976;-72
2022/06/03 13:32:35;;;;;;;;;;;24.10;91.00;;;;;;4995332;28;20393;-72
2022/06/03 13:35:10;;;;;;;;;;;24.00;90.60;;;;;;4994360;28;19973;-71
2022/06/03 13:38:07;;;;;;;;;;;24.10;90.50;;;;;;4994921;28;20401;-74
2022/06/03 13:40:34;;;;;;;;;;;24.10;91.20;;;;;;4993280;28;19926;-71
2022/06/03 13:43:00;;;;;;;;;;;23.90;90.70;;;;;;4992935;28;19932;-72
2022/06/03 13:45:44;;;;;;;;;;;24.00;91.00;;;;;;5009376;28;20024;-71
2022/06/03 13:48:13;;;;;;;;;;;23.90;91.00;;;;;;5014075;28;19925;-71
2022/06/03 13:50:40;;;;;;;;;;;24.00;90.10;;;;;;5012286;28;19929;-72
2022/06/03 13:53:06;;;;;;;;;;;24.00;88.60;;;;;;5014412;28;19929;-73
2022/06/03 13:55:41;;;;;;;;;;;24.00;90.10;;;;;;5012156;28;19925;-70
2022/06/03 13:58:11;;;;;;;;;;;23.80;90.60;;;;;;5012270;28;19980;-72
2022/06/03 14:00:39;;;;;;;;;;;23.90;90.50;;;;;;5006479;28;19932;-76
2022/06/03 14:03:04;;;;;;;;;;;23.90;89.00;;;;;;5019284;28;20396;-73
2022/06/03 14:05:37;;;;;;;;;;;23.90;88.80;;;;;;5009469;28;19926;-74
2022/06/03 14:08:14;;;;;;;;;;;23.90;89.50;;;;;;5021951;28;19991;-76
2022/06/03 14:10:44;;;;;;;;;;;23.90;87.90;;;;;;5004994;28;19933;-73
2022/06/03 14:13:17;;;;;;;;;;;23.80;87.50;;;;;;5010140;28;19937;-73
2022/06/03 14:15:51;;;;;;;;;;;23.60;90.10;;;;;;5010356;28;19925;-72
2022/06/03 14:18:36;;;;;;;;;;;23.60;88.70;;;;;;5013012;28;20003;-72
2022/06/03 14:21:01;;;;;;;;;;;23.60;89.30;;;;;;5011929;28;19967;-72
2022/06/03 14:23:37;;;;;;;;;;;23.70;90.00;;;;;;5006953;28;20067;-74
2022/06/03 14:26:08;;;;;;;;;;;23.80;88.70;;;;;;5011182;28;19980;-74
2022/06/03 14:28:40;;;;;;;;;;;23.80;87.60;;;;;;5010532;28;19979;-72
2022/06/03 14:31:23;;;;;;;;;;;23.70;89.50;;;;;;5010657;28;19926;-73
2022/06/03 14:33:50;;;;;;;;;;;23.70;90.30;;;;;;5004110;28;19926;-72
2022/06/03 14:36:18;;;;;;;;;;;23.70;90.00;;;;;;5013202;28;19992;-72
2022/06/03 14:38:48;;;;;;;;;;;23.70;90.10;;;;;;5011237;28;19937;-73
2022/06/03 14:41:19;;;;;;;;;;;23.60;90.00;;;;;;5011352;28;19926;-73
2022/06/03 14:43:44;;;;;;;;;;;23.50;89.90;;;;;;5013213;28;19932;-73
2022/06/03 14:46:16;;;;;;;;;;;23.30;90.10;;;;;;5012371;28;20004;-74
2022/06/03 14:48:53;;;;;;;;;;;23.20;89.00;;;;;;5010705;28;19957;-77
2022/06/03 14:51:25;;;;;;;;;;;23.10;90.60;;;;;;4992402;28;19933;-74
2022/06/03 14:53:55;;;;;;;;;;;23.00;90.40;;;;;;4993895;28;19997;-73
2022/06/03 14:56:20;;;;;;;;;;;23.00;90.90;;;;;;5011354;28;20036;-73
2022/06/03 14:58:48;;;;;;;;;;;23.00;91.00;;;;;;5010733;28;19925;-73
2022/06/03 15:01:40;;;;;;;;;;;23.10;90.50;;;;;;5028811;28;19943;-73
2022/06/03 15:04:05;;;;;;;;;;;23.00;90.70;;;;;;5026260;28;19930;-73
2022/06/03 15:06:31;;;;;;;;;;;22.90;91.70;;;;;;4996840;28;20031;-74
2022/06/03 15:09:06;;;;;;;;;;;22.90;91.30;;;;;;4995269;28;19933;-77
2022/06/03 15:11:36;;;;;;;;;;;22.80;91.60;;;;;;4997518;28;19926;-70
2022/06/03 15:14:06;;;;;;;;;;;22.70;90.80;;;;;;4990700;28;19925;-70
2022/06/03 15:16:32;;;;;;;;;;;22.70;90.80;;;;;;4991561;28;19953;-70
2022/06/03 15:18:58;;;;;;;;;;;22.60;90.10;;;;;;4991469;28;19926;-71
2022/06/03 15:21:23;;;;;;;;;;;22.60;90.20;;;;;;5000577;28;19933;-70
2022/06/03 15:23:54;;;;;;;;;;;22.60;91.10;;;;;;5010689;28;20301;-73
2022/06/03 15:26:22;;;;;;;;;;;22.70;89.50;;;;;;5010644;28;20427;-72
2022/06/03 15:29:08;;;;;;;;;;;22.70;90.10;;;;;;5008664;28;19925;-70